createdAt,value
2023-01-12T00:00:38.786Z,120.47
2023-01-12T00:03:08.050Z,110.77
2023-01-12T00:05:37.490Z,98.60
2023-01-12T00:08:07.621Z,109.10
2023-01-12T00:10:36.790Z,107.53
2023-01-12T00:13:26.229Z,101.30
2023-01-12T00:16:16.492Z,113.10
2023-01-12T00:18:45.764Z,124.13
2023-01-12T00:21:15.340Z,135.00
2023-01-12T00:23:44.996Z,131.43
2023-01-12T00:26:14.325Z,124.20
2023-01-12T00:28:44.931Z,134.50
2023-01-12T00:31:14.120Z,141.60
2023-01-12T00:33:43.415Z,145.67
2023-01-12T00:36:14.793Z,141.07
2023-01-12T00:38:44.418Z,156.87
2023-01-12T00:41:36.422Z,155.77
2023-01-12T00:44:25.654Z,140.67
2023-01-12T00:46:54.784Z,146.53
2023-01-12T00:49:23.923Z,158.53
2023-01-12T00:51:53.038Z,171.30
2023-01-12T00:54:22.284Z,183.00
2023-01-12T00:56:51.409Z,201.63
2023-01-12T00:59:22.216Z,207.33
2023-01-12T01:01:51.452Z,216.77
2023-01-12T01:04:20.721Z,219.90
2023-01-12T01:06:50.218Z,186.03
2023-01-12T01:09:19.469Z,187.50
2023-01-12T01:11:48.772Z,193.03
2023-01-12T01:14:18.154Z,189.90
2023-01-12T01:16:48.869Z,190.83
2023-01-12T01:19:18.121Z,191.50
2023-01-12T01:21:47.190Z,191.23
2023-01-12T01:24:16.924Z,183.00
2023-01-12T01:26:46.276Z,161.07
2023-01-12T01:29:15.465Z,173.23
2023-01-12T01:31:44.715Z,179.73
2023-01-12T01:34:34.109Z,174.80
2023-01-12T01:37:03.328Z,169.80
2023-01-12T01:39:32.672Z,170.43
2023-01-12T01:42:02.023Z,206.13
2023-01-12T01:44:51.298Z,211.83
2023-01-12T01:47:27.089Z,202.03
2023-01-12T01:50:00.247Z,165.77
2023-01-12T01:52:32.812Z,200.07
2023-01-12T01:55:06.301Z,183.30
2023-01-12T01:57:40.315Z,181.17
2023-01-12T02:00:12.386Z,164.73
2023-01-12T02:02:43.658Z,158.17
2023-01-12T02:05:18.978Z,173.53
2023-01-12T02:07:48.931Z,177.53
2023-01-12T02:10:18.772Z,181.23
2023-01-12T02:13:13.829Z,171.23
2023-01-12T02:19:18.991Z,173.00
2023-01-12T02:22:15.953Z,174.10
2023-01-12T02:25:27.716Z,161.87
2023-01-12T02:28:28.984Z,181.27
2023-01-12T02:31:18.658Z,152.60
2023-01-12T02:33:56.781Z,175.17
2023-01-12T02:36:32.275Z,181.93
2023-01-12T02:39:13.448Z,165.67
2023-01-12T02:42:07.530Z,152.10
2023-01-12T02:44:43.257Z,150.47
2023-01-12T02:47:20.121Z,149.67
2023-01-12T02:49:54.373Z,158.33
2023-01-12T02:52:28.307Z,154.27
2023-01-12T02:54:59.769Z,139.67
2023-01-12T02:57:31.748Z,147.77
2023-01-12T03:00:02.410Z,164.30
2023-01-12T03:02:33.847Z,164.17
2023-01-12T03:05:04.037Z,151.87
2023-01-12T03:07:48.681Z,162.37
2023-01-12T03:10:27.993Z,191.27
2023-01-12T03:12:59.484Z,197.30
2023-01-12T03:15:30.396Z,200.63
2023-01-12T03:18:04.842Z,178.47
2023-01-12T03:20:37.021Z,196.93
2023-01-12T03:23:13.367Z,204.57
2023-01-12T03:25:46.074Z,209.77
2023-01-12T03:28:18.769Z,213.57
2023-01-12T03:30:55.946Z,222.70
2023-01-12T03:33:27.623Z,221.20
2023-01-12T03:36:07.655Z,189.93
2023-01-12T03:38:43.770Z,201.03
2023-01-12T03:41:22.287Z,200.03
2023-01-12T03:43:54.217Z,204.40
2023-01-12T03:46:46.139Z,179.80
2023-01-12T03:49:25.253Z,167.03
2023-01-12T03:51:55.878Z,188.20
2023-01-12T03:54:26.706Z,168.93
2023-01-12T03:56:56.793Z,154.80
2023-01-12T03:59:26.500Z,147.03
2023-01-12T04:01:55.747Z,145.47
2023-01-12T04:04:26.428Z,144.93
2023-01-12T04:06:55.695Z,144.10
2023-01-12T04:09:26.073Z,147.40
2023-01-12T04:12:13.748Z,145.43
2023-01-12T04:14:47.809Z,139.17
2023-01-12T04:17:17.868Z,146.77
2023-01-12T04:19:49.016Z,150.87
2023-01-12T04:22:35.600Z,147.83
2023-01-12T04:25:07.500Z,142.73
2023-01-12T04:27:38.029Z,128.10
2023-01-12T04:30:08.169Z,140.77
2023-01-12T04:32:38.182Z,133.97
2023-01-12T04:35:09.736Z,135.93
2023-01-12T04:37:39.066Z,132.50
2023-01-12T04:40:09.860Z,148.40
2023-01-12T04:42:56.549Z,157.37
2023-01-12T04:45:25.981Z,214.20
2023-01-12T04:47:55.296Z,229.83
2023-01-12T04:50:25.935Z,237.50
2023-01-12T04:52:55.332Z,263.83
2023-01-12T04:55:24.540Z,313.00
2023-01-12T04:57:53.640Z,317.40
2023-01-12T05:00:23.429Z,291.00
2023-01-12T05:02:58.361Z,280.70
2023-01-12T05:05:29.644Z,173.87
2023-01-12T05:08:19.552Z,167.37
2023-01-12T05:10:54.433Z,139.10
2023-01-12T05:13:25.069Z,156.43
2023-01-12T05:15:54.268Z,200.50
2023-01-12T05:18:23.496Z,139.00
2023-01-12T05:20:54.251Z,126.73
2023-01-12T05:23:23.480Z,133.83
2023-01-12T05:25:52.627Z,130.30
2023-01-12T05:28:21.806Z,122.63
2023-01-12T05:30:51.663Z,112.07
2023-01-12T05:33:21.926Z,117.37
2023-01-12T05:35:52.602Z,102.57
2023-01-12T05:38:21.850Z,101.93
2023-01-12T05:40:50.969Z,102.80
2023-01-12T05:43:53.074Z,106.83
2023-01-12T05:46:24.048Z,114.00
2023-01-12T05:48:54.933Z,111.13
2023-01-12T05:51:27.158Z,108.90
2023-01-12T05:53:56.669Z,115.13
2023-01-12T05:56:27.798Z,143.77
2023-01-12T05:58:59.076Z,115.33
2023-01-12T06:01:29.001Z,109.93
2023-01-12T06:03:59.702Z,109.83
2023-01-12T06:06:32.105Z,113.23
2023-01-12T06:09:02.050Z,117.93
2023-01-12T06:11:48.826Z,123.70
2023-01-12T06:14:18.269Z,118.83
2023-01-12T06:16:47.399Z,121.57
2023-01-12T06:19:16.612Z,121.40
2023-01-12T06:21:47.341Z,113.97
2023-01-12T06:24:16.594Z,122.97
2023-01-12T06:26:46.262Z,119.53
2023-01-12T06:29:15.508Z,114.17
2023-01-12T06:31:44.877Z,113.43
2023-01-12T06:34:14.220Z,109.40
2023-01-12T06:36:43.473Z,108.97
2023-01-12T06:39:15.375Z,109.27
2023-01-12T06:42:01.812Z,98.17
2023-01-12T06:44:31.055Z,90.97
2023-01-12T06:47:00.150Z,112.47
2023-01-12T06:49:29.251Z,95.47
2023-01-12T06:51:58.639Z,88.03
2023-01-12T06:54:31.126Z,77.53
2023-01-12T06:57:00.425Z,64.63
2023-01-12T06:59:29.584Z,66.77
2023-01-12T07:01:58.681Z,61.17
2023-01-12T07:04:28.149Z,67.47
2023-01-12T07:06:57.291Z,56.53
2023-01-12T07:09:26.480Z,54.70
2023-01-12T07:12:15.455Z,58.53
2023-01-12T07:14:44.894Z,54.57
2023-01-12T07:17:14.238Z,59.17
2023-01-12T07:19:43.671Z,62.47
2023-01-12T07:22:12.843Z,53.30
2023-01-12T07:24:42.050Z,62.80
2023-01-12T07:27:11.333Z,87.40
2023-01-12T07:29:42.049Z,94.20
2023-01-12T07:32:11.294Z,101.13
2023-01-12T07:34:40.590Z,99.43
2023-01-12T07:37:10.139Z,92.33
2023-01-12T07:39:39.988Z,88.43
2023-01-12T07:42:25.496Z,70.77
2023-01-12T07:44:56.619Z,57.20
2023-01-12T07:47:28.232Z,55.03
2023-01-12T07:49:58.059Z,58.27
2023-01-12T07:52:27.868Z,58.50
2023-01-12T07:54:57.520Z,56.20
2023-01-12T07:57:27.259Z,60.70
2023-01-12T07:59:58.705Z,62.53
2023-01-12T08:02:28.049Z,72.00
2023-01-12T08:04:57.277Z,66.27
2023-01-12T08:07:26.933Z,98.67
2023-01-12T08:09:56.454Z,123.23
2023-01-12T08:12:25.723Z,114.80
2023-01-12T08:14:54.806Z,110.73
2023-01-12T08:17:26.022Z,92.27
2023-01-12T08:20:00.933Z,83.00
2023-01-12T08:22:35.393Z,92.87
2023-01-12T08:25:08.863Z,89.87
2023-01-12T08:27:40.388Z,141.27
2023-01-12T08:30:11.093Z,127.53
2023-01-12T08:32:41.980Z,129.93
2023-01-12T08:35:13.420Z,126.63
2023-01-12T08:37:43.086Z,152.23
2023-01-12T08:40:13.593Z,138.77
2023-01-12T08:42:42.899Z,165.73
2023-01-12T08:45:12.825Z,123.83
2023-01-12T08:47:44.795Z,169.87
2023-01-12T08:50:14.399Z,144.83
2023-01-12T08:52:43.645Z,165.43
2023-01-12T08:55:12.887Z,152.07
2023-01-12T08:57:41.969Z,139.60
2023-01-12T09:00:12.185Z,148.50
2023-01-12T09:02:42.777Z,101.90
2023-01-12T09:05:12.088Z,103.67
2023-01-12T09:07:43.207Z,127.73
2023-01-12T09:10:12.701Z,140.53
2023-01-12T09:12:41.898Z,87.43
2023-01-12T09:15:12.165Z,87.40
2023-01-12T09:17:43.595Z,79.03
2023-01-12T09:20:13.797Z,71.07
2023-01-12T09:22:43.098Z,74.10
2023-01-12T09:25:16.415Z,89.93
2023-01-12T09:28:04.866Z,80.97
2023-01-12T09:30:34.092Z,68.87
2023-01-12T09:33:04.990Z,82.27
2023-01-12T09:35:34.294Z,82.50
2023-01-12T09:38:03.489Z,92.47
2023-01-12T09:40:32.809Z,85.10
2023-01-12T09:43:19.375Z,75.67
2023-01-12T09:46:11.457Z,82.07
2023-01-12T09:48:42.261Z,112.47
2023-01-12T09:51:18.351Z,120.73
2023-01-12T09:53:48.036Z,142.23
2023-01-12T09:56:23.281Z,145.83
2023-01-12T09:59:18.612Z,126.67
2023-01-12T10:01:48.282Z,119.60
2023-01-12T10:04:18.975Z,110.57
2023-01-12T10:06:48.016Z,125.53
2023-01-12T10:09:20.795Z,124.30
2023-01-12T10:12:02.098Z,112.43
2023-01-12T10:14:57.787Z,108.20
2023-01-12T10:17:46.030Z,103.07
2023-01-12T10:20:28.321Z,90.67
2023-01-12T10:23:02.520Z,96.40
2023-01-12T10:25:38.174Z,106.83
2023-01-12T10:28:17.089Z,154.17
2023-01-12T10:30:47.165Z,116.17
2023-01-12T10:33:19.496Z,106.33
2023-01-12T10:35:59.375Z,106.60
2023-01-12T10:38:31.684Z,106.87
2023-01-12T10:41:21.228Z,89.40
2023-01-12T10:44:14.845Z,89.87
2023-01-12T10:46:44.389Z,91.53
2023-01-12T10:49:21.365Z,85.57
2023-01-12T10:51:58.668Z,74.73
2023-01-12T10:54:31.634Z,70.23
2023-01-12T10:57:04.764Z,80.73
2023-01-12T10:59:36.833Z,88.73
2023-01-12T11:02:16.117Z,82.37
2023-01-12T11:05:03.794Z,81.20
2023-01-12T11:07:36.931Z,83.40
2023-01-12T11:10:27.388Z,102.57
2023-01-12T11:12:59.231Z,134.67
2023-01-12T11:15:29.709Z,131.93
2023-01-12T11:18:13.191Z,128.83
2023-01-12T11:20:48.943Z,106.10
2023-01-12T11:23:42.315Z,104.07
2023-01-12T11:26:20.287Z,108.87
2023-01-12T11:28:52.414Z,98.57
2023-01-12T11:31:26.731Z,103.53
2023-01-12T11:34:00.545Z,87.10
2023-01-12T11:36:33.322Z,79.87
2023-01-12T11:39:07.130Z,76.27
2023-01-12T11:41:42.207Z,80.77
2023-01-12T11:44:16.888Z,85.17
2023-01-12T11:46:51.006Z,84.27
2023-01-12T11:49:26.121Z,163.53
2023-01-12T11:51:57.914Z,164.20
2023-01-12T11:54:29.945Z,115.70
2023-01-12T11:57:47.361Z,108.00
2023-01-12T12:00:36.639Z,110.43
2023-01-12T12:03:41.112Z,121.70
2023-01-12T12:06:30.549Z,112.33
2023-01-12T12:09:06.752Z,90.80
2023-01-12T12:11:47.325Z,84.40
2023-01-12T12:14:29.368Z,83.40
2023-01-12T12:17:05.549Z,87.17
2023-01-12T12:19:47.102Z,80.87
2023-01-12T12:22:29.380Z,96.23
2023-01-12T12:25:23.806Z,80.23
2023-01-12T12:28:18.802Z,85.47
2023-01-12T12:31:21.582Z,69.63
2023-01-12T12:34:08.230Z,73.00
2023-01-12T12:36:42.993Z,104.93
2023-01-12T12:39:38.105Z,103.20
2023-01-12T12:42:41.096Z,101.83
2023-01-12T12:45:22.941Z,70.33
2023-01-12T12:48:00.514Z,77.17
2023-01-12T12:50:32.746Z,83.20
2023-01-12T12:53:21.266Z,98.87
2023-01-12T12:55:53.181Z,93.00
2023-01-12T12:58:40.614Z,106.13
2023-01-12T13:01:46.042Z,105.13
2023-01-12T13:04:55.190Z,119.47
2023-01-12T13:07:27.175Z,119.53
2023-01-12T13:10:31.361Z,128.47
2023-01-12T13:13:04.725Z,145.83
2023-01-12T13:15:40.025Z,136.43
2023-01-12T13:18:41.880Z,113.67
2023-01-12T13:21:32.640Z,92.43
2023-01-12T13:24:26.137Z,77.07
2023-01-12T13:26:57.933Z,67.83
2023-01-12T13:29:50.849Z,65.00
2023-01-12T13:32:58.916Z,61.50
2023-01-12T13:35:53.643Z,59.03
2023-01-12T13:38:47.222Z,58.40
2023-01-12T13:41:41.327Z,58.77
2023-01-12T13:44:13.981Z,58.67
2023-01-12T13:46:47.262Z,67.20
2023-01-12T13:49:31.981Z,50.57
2023-01-12T13:52:03.364Z,52.10
2023-01-12T13:54:52.842Z,51.73
2023-01-12T13:57:24.957Z,45.53
2023-01-12T14:00:04.840Z,44.97
2023-01-12T14:02:43.044Z,53.33
2023-01-12T14:05:38.358Z,57.47
2023-01-12T14:08:50.755Z,64.50
2023-01-12T14:11:58.310Z,63.60
2023-01-12T14:15:19.011Z,74.70
2023-01-12T14:17:53.218Z,63.43
2023-01-12T14:20:23.940Z,66.97
2023-01-12T14:23:14.274Z,56.77
2023-01-12T14:25:44.153Z,60.93
2023-01-12T14:28:20.807Z,88.57
2023-01-12T14:30:53.994Z,55.43
2023-01-12T14:33:26.058Z,54.57
2023-01-12T14:35:57.096Z,52.87
2023-01-12T14:38:30.137Z,54.63
2023-01-12T14:41:02.831Z,53.43
2023-01-12T14:43:50.492Z,64.03
2023-01-12T14:46:27.825Z,57.37
2023-01-12T14:49:03.414Z,62.47
2023-01-12T14:51:35.901Z,65.27
2023-01-12T14:54:19.411Z,64.47
2023-01-12T14:56:56.764Z,60.90
2023-01-12T14:59:28.959Z,61.17
2023-01-12T15:02:34.670Z,60.07
2023-01-12T15:05:09.150Z,63.80
2023-01-12T15:07:41.544Z,55.50
2023-01-12T15:10:29.989Z,53.97
2023-01-12T15:13:00.704Z,88.57
2023-01-12T15:15:52.392Z,85.37
2023-01-12T15:18:40.324Z,82.47
2023-01-12T15:21:28.843Z,81.30
2023-01-12T15:24:15.745Z,92.07
2023-01-12T15:26:51.104Z,114.77
2023-01-12T15:29:25.058Z,209.53
2023-01-12T15:31:54.100Z,165.83
2023-01-12T15:34:26.456Z,111.73
2023-01-12T15:36:55.725Z,101.60
2023-01-12T15:39:24.655Z,115.70
2023-01-12T15:42:11.209Z,84.60
2023-01-12T15:44:40.181Z,86.27
2023-01-12T15:47:11.846Z,81.13
2023-01-12T15:49:42.978Z,77.37
2023-01-12T15:52:15.597Z,75.60
2023-01-12T15:54:45.173Z,81.60
2023-01-12T15:57:15.552Z,86.87
2023-01-12T15:59:45.160Z,89.03
2023-01-12T16:02:31.724Z,79.90
2023-01-12T16:05:02.813Z,79.97
2023-01-12T16:07:31.934Z,85.50
2023-01-12T16:10:01.256Z,84.13
2023-01-12T16:12:30.684Z,93.40
2023-01-12T16:15:01.277Z,98.17
2023-01-12T16:17:30.856Z,103.27
2023-01-12T16:19:59.971Z,186.93
2023-01-12T16:22:31.335Z,184.17
2023-01-12T16:25:00.507Z,146.70
2023-01-12T16:27:30.034Z,243.37
2023-01-12T16:29:59.682Z,162.83
2023-01-12T16:32:29.399Z,141.60
2023-01-12T16:34:58.359Z,154.50
2023-01-12T16:37:31.110Z,146.07
2023-01-12T16:40:01.872Z,121.37
2023-01-12T16:42:31.679Z,112.77
2023-01-12T16:45:00.902Z,97.97
2023-01-12T16:47:29.977Z,98.70
2023-01-12T16:49:59.404Z,103.30
2023-01-12T16:52:28.917Z,97.17
2023-01-12T16:54:57.827Z,110.70
2023-01-12T16:57:28.244Z,116.37
2023-01-12T16:59:57.796Z,100.87
2023-01-12T17:02:27.759Z,106.70
2023-01-12T17:04:57.133Z,89.30
2023-01-12T17:07:27.546Z,79.13
2023-01-12T17:09:56.535Z,90.87
2023-01-12T17:12:25.754Z,105.10
2023-01-12T17:14:56.996Z,92.97
2023-01-12T17:17:26.630Z,99.43
2023-01-12T17:19:56.681Z,93.50
2023-01-12T17:22:26.172Z,109.93
2023-01-12T17:24:55.238Z,113.43
2023-01-12T17:27:24.336Z,101.10
2023-01-12T17:29:53.683Z,88.37
2023-01-12T17:32:24.223Z,89.47
2023-01-12T17:34:53.323Z,90.80
2023-01-12T17:37:22.190Z,80.73
2023-01-12T17:39:51.204Z,94.50
2023-01-12T17:42:37.562Z,90.83
2023-01-12T17:45:08.243Z,81.70
2023-01-12T17:47:57.455Z,71.70
2023-01-12T17:50:26.525Z,70.57
2023-01-12T17:52:55.535Z,66.27
2023-01-12T17:55:24.736Z,81.47
2023-01-12T17:57:54.279Z,87.10
2023-01-12T18:00:24.604Z,85.83
2023-01-12T18:02:53.630Z,81.27
2023-01-12T18:05:25.537Z,75.93
2023-01-12T18:07:54.438Z,93.73
2023-01-12T18:10:23.501Z,112.13
2023-01-12T18:12:52.528Z,110.37
2023-01-12T18:15:21.416Z,75.90
2023-01-12T18:17:50.670Z,58.50
2023-01-12T18:20:19.767Z,66.10
2023-01-12T18:22:50.199Z,68.73
2023-01-12T18:25:19.360Z,102.60
2023-01-12T18:27:48.313Z,114.97
2023-01-12T18:30:18.212Z,124.10
2023-01-12T18:32:47.366Z,122.60
2023-01-12T18:35:16.769Z,79.40
2023-01-12T18:37:47.466Z,80.07
2023-01-12T18:40:18.105Z,102.67
2023-01-12T18:42:52.037Z,90.63
2023-01-12T18:45:21.751Z,117.90
2023-01-12T18:48:07.880Z,119.70
2023-01-12T18:50:54.568Z,105.50
2023-01-12T18:53:25.484Z,85.53
2023-01-12T18:55:58.304Z,71.00
2023-01-12T18:58:29.952Z,83.17
2023-01-12T19:01:00.901Z,91.90
2023-01-12T19:03:30.016Z,86.77
2023-01-12T19:06:01.585Z,78.53
2023-01-12T19:08:48.894Z,97.50
2023-01-12T19:11:19.325Z,90.27
2023-01-12T19:14:05.606Z,93.93
2023-01-12T19:16:51.564Z,95.97
2023-01-12T19:19:24.210Z,88.47
2023-01-12T19:22:28.839Z,92.73
2023-01-12T19:25:15.006Z,81.30
2023-01-12T19:28:03.119Z,77.53
2023-01-12T19:30:33.408Z,77.23
2023-01-12T19:33:03.903Z,73.10
2023-01-12T19:35:33.005Z,77.17
2023-01-12T19:38:01.994Z,75.37
2023-01-12T19:40:35.054Z,73.80
2023-01-12T19:43:12.938Z,73.40
2023-01-12T19:45:43.192Z,79.23
2023-01-12T19:48:14.081Z,75.80
2023-01-12T19:50:46.077Z,78.90
2023-01-12T19:53:16.478Z,75.57
2023-01-12T19:55:45.708Z,81.03
2023-01-12T19:58:16.567Z,73.77
2023-01-12T20:00:46.788Z,79.40
2023-01-12T20:03:17.067Z,86.83
2023-01-12T20:05:47.592Z,83.90
2023-01-12T20:08:17.121Z,91.27
2023-01-12T20:10:46.424Z,90.20
2023-01-12T20:13:17.494Z,88.73
2023-01-12T20:15:48.817Z,80.20
2023-01-12T20:18:18.543Z,80.10
2023-01-12T20:20:48.542Z,70.83
2023-01-12T20:23:20.465Z,97.33
2023-01-12T20:25:49.612Z,100.23
2023-01-12T20:28:20.057Z,95.77
2023-01-12T20:30:49.047Z,91.40
2023-01-12T20:33:18.367Z,86.60
2023-01-12T20:35:48.271Z,75.83
2023-01-12T20:38:18.904Z,73.93
2023-01-12T20:40:48.060Z,83.63
2023-01-12T20:43:18.508Z,69.40
2023-01-12T20:45:47.780Z,72.40
2023-01-12T20:48:16.824Z,81.83
2023-01-12T20:50:46.175Z,72.67
2023-01-12T20:53:16.431Z,70.93
2023-01-12T20:55:46.930Z,78.27
2023-01-12T20:58:16.148Z,67.33
2023-01-12T21:00:47.366Z,79.87
2023-01-12T21:03:16.847Z,90.17
2023-01-12T21:05:48.103Z,87.47
2023-01-12T21:08:35.704Z,79.53
2023-01-12T21:11:04.767Z,77.10
2023-01-12T21:13:34.849Z,80.93
2023-01-12T21:16:07.392Z,89.90
2023-01-12T21:18:37.018Z,96.47
2023-01-12T21:21:06.538Z,93.23
2023-01-12T21:23:36.048Z,87.10
2023-01-12T21:26:24.006Z,84.03
2023-01-12T21:28:52.945Z,87.23
2023-01-12T21:31:23.547Z,89.43
2023-01-12T21:33:52.516Z,98.90
2023-01-12T21:36:23.605Z,90.53
2023-01-12T21:38:52.864Z,86.70
2023-01-12T21:41:22.659Z,84.60
2023-01-12T21:43:51.285Z,79.13
2023-01-12T21:46:22.565Z,94.70
2023-01-12T21:48:53.102Z,86.10
2023-01-12T21:51:22.270Z,85.90
2023-01-12T21:53:51.814Z,87.87
2023-01-12T21:56:20.800Z,90.17
2023-01-12T21:58:49.872Z,92.13
2023-01-12T22:01:18.894Z,87.47
2023-01-12T22:03:47.877Z,89.87
2023-01-12T22:06:18.729Z,90.73
2023-01-12T22:08:47.696Z,84.80
2023-01-12T22:11:18.176Z,103.53
2023-01-12T22:13:47.330Z,99.70
2023-01-12T22:16:17.828Z,92.77
2023-01-12T22:18:49.470Z,95.27
2023-01-12T22:21:21.292Z,104.00
2023-01-12T22:23:50.824Z,109.23
2023-01-12T22:26:20.529Z,108.27
2023-01-12T22:28:50.510Z,102.70
2023-01-12T22:31:21.293Z,101.40
2023-01-12T22:33:54.325Z,91.40
2023-01-12T22:36:24.874Z,86.40
2023-01-12T22:38:53.998Z,92.67
2023-01-12T22:41:24.874Z,81.07
2023-01-12T22:43:54.223Z,87.10
2023-01-12T22:46:24.980Z,81.30
2023-01-12T22:48:56.109Z,87.13
2023-01-12T22:51:28.061Z,157.17
2023-01-12T22:53:57.964Z,126.13
2023-01-12T22:56:27.182Z,100.70
2023-01-12T22:58:57.035Z,86.17
2023-01-12T23:01:27.107Z,99.23
2023-01-12T23:03:56.346Z,97.73
2023-01-12T23:06:45.606Z,94.83
2023-01-12T23:09:14.493Z,84.17
2023-01-12T23:11:43.485Z,94.97
2023-01-12T23:14:12.304Z,111.63
2023-01-12T23:16:41.253Z,107.13
2023-01-12T23:19:10.588Z,246.17
2023-01-12T23:21:39.925Z,112.73
2023-01-12T23:24:10.551Z,172.17
2023-01-12T23:26:39.518Z,111.73
2023-01-12T23:29:08.579Z,122.77
2023-01-12T23:31:38.383Z,120.63
2023-01-12T23:34:07.262Z,114.43
2023-01-12T23:36:36.341Z,144.50
2023-01-12T23:39:07.840Z,152.73
2023-01-12T23:41:39.301Z,146.57
2023-01-12T23:44:11.219Z,115.33
2023-01-12T23:46:43.367Z,107.23
2023-01-12T23:49:30.828Z,86.93
2023-01-12T23:51:59.913Z,79.50
2023-01-12T23:54:47.434Z,75.27
2023-01-12T23:57:17.731Z,81.73
2023-01-12T23:59:46.748Z,78.53
